Terminal Aerodrome Forecast
Issued by NWS

Home | Current Version | Previous Version | Text Only | Print | Product List | Glossary On
Versions: 1 2 3 4 5 6 7 8 9 10 11 12 13 14 15 16 17
000
FTUS42 KTAE 250520
TAFVLD
TAF
KVLD 250520Z 2506/2606 18003KT P6SM SCT050
     FM250900 00000KT 4SM BR BKN005
      TEMPO 2510/2513 1/2SM FG
     FM251400 28010KT P6SM BKN015
     FM251900 30008KT P6SM SCT035
     FM260000 31003KT P6SM SKC=

USA.gov is the U.S. government's official web portal to all federal, state and local government web resources and services.